Time,TemperatureF,DewpointF,PressureIn,WindDirection,WindDirectionDegrees,WindSpeedMPH,WindSpeedGustMPH,Humidity,HourlyPrecipIn,Conditions,Clouds,dailyrainin,SolarRadiationWatts/m^2,SoftwareType,DateUTC
2013-09-10 00:01:00,64.0,34.0,-100.00,NW,320,21.0,23.0,33,0.00,,,0.00,0.000000,,2013-09-10 07:01:00,
2013-09-10 00:12:00,64.0,34.0,-100.00,NW,320,21.0,23.0,33,0.00,,,0.00,0.000000,,2013-09-10 07:12:00,
2013-09-10 00:21:00,64.0,34.0,-100.00,NW,320,21.0,23.0,33,0.00,,,0.00,0.000000,,2013-09-10 07:21:00,
2013-09-10 00:52:00,66.0,35.0,-100.00,NNW,329,21.0,25.0,32,0.00,,,0.00,0.000000,,2013-09-10 07:52:00,
2013-09-10 01:02:00,66.0,35.0,-100.00,NNW,329,21.0,25.0,32,0.00,,,0.00,0.000000,,2013-09-10 08:02:00,
2013-09-10 01:11:00,66.0,35.0,-100.00,NNW,329,21.0,25.0,32,0.00,,,0.00,0.000000,,2013-09-10 08:11:00,
2013-09-10 01:22:00,66.0,35.0,-100.00,NNW,329,21.0,25.0,32,0.00,,,0.00,0.000000,,2013-09-10 08:22:00,
2013-09-10 01:52:00,64.0,34.0,-100.00,NW,326,20.0,26.0,33,0.00,,,0.00,0.000000,,2013-09-10 08:52:00,
2013-09-10 02:02:00,64.0,34.0,-100.00,NW,326,20.0,26.0,33,0.00,,,0.00,0.000000,,2013-09-10 09:02:00,
2013-09-10 02:11:00,64.0,34.0,-100.00,NW,326,20.0,26.0,33,0.00,,,0.00,0.000000,,2013-09-10 09:11:00,
2013-09-10 02:21:00,64.0,34.0,-100.00,NW,326,20.0,26.0,33,0.00,,,0.00,0.000000,,2013-09-10 09:21:00,
2013-09-10 02:54:00,65.0,35.0,-100.00,NNW,331,20.0,26.0,33,0.00,,,0.00,0.000000,,2013-09-10 09:54:00,
2013-09-10 03:03:00,65.0,35.0,-100.00,NNW,331,20.0,26.0,33,0.00,,,0.00,0.000000,,2013-09-10 10:03:00,
2013-09-10 03:13:00,65.0,35.0,-100.00,NNW,331,20.0,26.0,33,0.00,,,0.00,0.000000,,2013-09-10 10:13:00,
2013-09-10 03:23:00,65.0,35.0,-100.00,NNW,331,20.0,26.0,33,0.00,,,0.00,0.000000,,2013-09-10 10:23:00,
2013-09-10 03:53:00,64.0,35.0,-100.00,NW,326,19.0,25.0,34,0.00,,,0.00,0.000000,,2013-09-10 10:53:00,
2013-09-10 04:03:00,64.0,35.0,-100.00,NW,326,19.0,25.0,34,0.00,,,0.00,0.000000,,2013-09-10 11:03:00,
2013-09-10 04:12:00,64.0,35.0,-100.00,NW,326,19.0,25.0,34,0.00,,,0.00,0.000000,,2013-09-10 11:12:00,
2013-09-10 04:22:00,64.0,35.0,-100.00,NW,326,19.0,25.0,34,0.00,,,0.00,0.000000,,2013-09-10 11:22:00,
2013-09-10 06:52:00,63.0,36.0,-100.00,NW,323,10.0,17.0,37,-99.99,,,0.00,0.000000,,2013-09-10 13:52:00,
2013-09-10 07:02:00,63.0,36.0,-100.00,NW,323,10.0,17.0,37,-99.99,,,0.00,0.000000,,2013-09-10 14:02:00,
2013-09-10 07:11:00,63.0,36.0,-100.00,NW,323,10.0,17.0,37,-99.99,,,0.00,0.000000,,2013-09-10 14:11:00,
2013-09-10 07:21:00,63.0,36.0,-100.00,NW,323,10.0,17.0,37,-99.99,,,0.00,0.000000,,2013-09-10 14:21:00,
2013-09-10 07:52:00,61.0,33.0,-100.00,NNW,336,7.0,12.0,35,0.00,,,0.00,0.000000,,2013-09-10 14:52:00,
2013-09-10 08:02:00,61.0,33.0,-100.00,NNW,336,7.0,12.0,35,0.00,,,0.00,0.000000,,2013-09-10 15:02:00,
2013-09-10 08:11:00,61.0,33.0,-100.00,NNW,336,7.0,12.0,35,0.00,,,0.00,0.000000,,2013-09-10 15:11:00,
2013-09-10 08:22:00,61.0,33.0,-100.00,NNW,336,7.0,12.0,35,0.00,,,0.00,0.000000,,2013-09-10 15:22:00,
2013-09-10 08:54:00,65.0,34.0,-100.00,NNW,341,5.0,10.0,31,0.00,,,0.00,20.000000,,2013-09-10 15:54:00,
2013-09-10 09:03:00,65.0,34.0,-100.00,NNW,341,5.0,10.0,31,0.00,,,0.00,20.000000,,2013-09-10 16:03:00,
2013-09-10 09:12:00,65.0,34.0,-100.00,NNW,341,5.0,10.0,31,0.00,,,0.00,20.000000,,2013-09-10 16:12:00,
2013-09-10 09:23:00,65.0,34.0,-100.00,NNW,341,5.0,10.0,31,0.00,,,0.00,20.000000,,2013-09-10 16:23:00,
2013-09-10 09:53:00,68.0,33.0,-100.00,East,90,5.0,8.0,27,0.00,,,-99.99,298.000000,,2013-09-10 16:53:00,
2013-09-10 10:03:00,68.0,33.0,-100.00,East,90,5.0,8.0,27,0.00,,,-99.99,298.000000,,2013-09-10 17:03:00,
2013-09-10 10:12:00,68.0,33.0,-100.00,East,90,5.0,8.0,27,0.00,,,-99.99,298.000000,,2013-09-10 17:12:00,
2013-09-10 10:23:00,68.0,33.0,-100.00,East,90,5.0,8.0,27,0.00,,,-99.99,298.000000,,2013-09-10 17:23:00,
2013-09-10 10:52:00,71.0,37.0,-100.00,East,101,6.0,8.0,29,0.00,,,0.00,556.000000,,2013-09-10 17:52:00,
2013-09-10 11:02:00,71.0,37.0,-100.00,East,101,6.0,8.0,29,0.00,,,0.00,556.000000,,2013-09-10 18:02:00,
2013-09-10 11:12:00,71.0,37.0,-100.00,East,101,6.0,8.0,29,0.00,,,0.00,556.000000,,2013-09-10 18:12:00,
2013-09-10 11:21:00,71.0,37.0,-100.00,East,101,6.0,8.0,29,0.00,,,0.00,556.000000,,2013-09-10 18:21:00,
2013-09-10 11:52:00,73.0,38.0,-100.00,ESE,108,7.0,11.0,28,0.00,,,0.00,798.000000,,2013-09-10 18:52:00,
2013-09-10 12:02:00,73.0,38.0,-100.00,ESE,108,7.0,11.0,28,0.00,,,0.00,798.000000,,2013-09-10 19:02:00,
2013-09-10 12:11:00,73.0,38.0,-100.00,ESE,108,7.0,11.0,28,0.00,,,0.00,798.000000,,2013-09-10 19:11:00,
2013-09-10 12:21:00,73.0,38.0,-100.00,ESE,108,7.0,11.0,28,0.00,,,0.00,798.000000,,2013-09-10 19:21:00,
2013-09-10 12:52:00,74.0,41.0,-100.00,East,101,8.0,13.0,31,0.00,,,0.00,988.000000,,2013-09-10 19:52:00,
2013-09-10 13:02:00,74.0,41.0,-100.00,East,101,8.0,13.0,31,0.00,,,0.00,988.000000,,2013-09-10 20:02:00,
2013-09-10 13:11:00,74.0,41.0,-100.00,East,101,8.0,13.0,31,0.00,,,0.00,988.000000,,2013-09-10 20:11:00,
2013-09-10 13:21:00,74.0,41.0,-100.00,East,101,8.0,13.0,31,0.00,,,0.00,988.000000,,2013-09-10 20:21:00,
2013-09-10 13:52:00,74.0,38.0,-100.00,ESE,122,9.0,19.0,27,0.00,,,0.00,1097.000000,,2013-09-10 20:52:00,
2013-09-10 14:02:00,74.0,38.0,-100.00,ESE,122,9.0,19.0,27,0.00,,,0.00,1097.000000,,2013-09-10 21:02:00,
2013-09-10 14:11:00,74.0,38.0,-100.00,ESE,122,9.0,19.0,27,0.00,,,0.00,1097.000000,,2013-09-10 21:11:00,
2013-09-10 14:22:00,74.0,38.0,-100.00,ESE,122,9.0,19.0,27,0.00,,,0.00,1097.000000,,2013-09-10 21:22:00,
2013-09-10 14:54:00,76.0,38.0,-100.00,ESE,116,10.0,17.0,25,0.00,,,0.00,1115.000000,,2013-09-10 21:54:00,
2013-09-10 15:04:00,76.0,38.0,-100.00,ESE,116,10.0,17.0,25,0.00,,,0.00,1115.000000,,2013-09-10 22:04:00,
2013-09-10 15:13:00,76.0,38.0,-100.00,ESE,116,10.0,17.0,25,0.00,,,0.00,1115.000000,,2013-09-10 22:13:00,
2013-09-10 15:24:00,76.0,38.0,-100.00,ESE,116,10.0,17.0,25,0.00,,,0.00,1115.000000,,2013-09-10 22:24:00,
2013-09-10 15:54:00,75.0,38.0,-100.00,SE,137,10.0,18.0,26,0.00,,,0.00,1069.000000,,2013-09-10 22:54:00,
2013-09-10 16:03:00,75.0,38.0,-100.00,SE,137,10.0,18.0,26,0.00,,,0.00,1069.000000,,2013-09-10 23:03:00,
2013-09-10 16:13:00,75.0,38.0,-100.00,SE,137,10.0,18.0,26,0.00,,,0.00,1069.000000,,2013-09-10 23:13:00,
2013-09-10 16:22:00,75.0,38.0,-100.00,SE,137,10.0,18.0,26,0.00,,,0.00,1069.000000,,2013-09-10 23:22:00,
2013-09-10 16:53:00,74.0,36.0,-100.00,SE,137,6.0,19.0,25,0.00,,,0.00,939.000000,,2013-09-10 23:53:00,
2013-09-10 17:02:00,74.0,36.0,-100.00,SE,137,6.0,19.0,25,0.00,,,0.00,939.000000,,2013-09-11 00:02:00,
2013-09-10 17:11:00,74.0,36.0,-100.00,SE,137,6.0,19.0,25,0.00,,,0.00,939.000000,,2013-09-11 00:11:00,
2013-09-10 17:22:00,74.0,36.0,-100.00,SE,137,6.0,19.0,25,0.00,,,0.00,939.000000,,2013-09-11 00:22:00,
2013-09-10 17:52:00,78.0,47.0,-100.00,East,95,8.0,17.0,33,0.00,,,0.00,728.000000,,2013-09-11 00:52:00,
2013-09-10 18:02:00,78.0,47.0,-100.00,East,95,8.0,17.0,33,0.00,,,0.00,728.000000,,2013-09-11 01:02:00,
2013-09-10 18:11:00,78.0,47.0,-100.00,East,95,8.0,17.0,33,0.00,,,0.00,728.000000,,2013-09-11 01:11:00,
2013-09-10 18:21:00,78.0,47.0,-100.00,East,95,8.0,17.0,33,0.00,,,0.00,728.000000,,2013-09-11 01:21:00,
2013-09-10 18:53:00,70.0,37.0,-100.00,ESE,120,3.0,23.0,30,0.00,,,0.00,250.000000,,2013-09-11 01:53:00,
2013-09-10 19:02:00,70.0,37.0,-100.00,ESE,120,3.0,23.0,30,0.00,,,0.00,250.000000,,2013-09-11 02:02:00,
2013-09-10 19:11:00,70.0,37.0,-100.00,ESE,120,3.0,23.0,30,0.00,,,0.00,250.000000,,2013-09-11 02:11:00,
2013-09-10 19:52:00,71.0,43.0,-100.00,WNW,302,10.0,11.0,36,0.00,,,0.00,171.000000,,2013-09-11 02:52:00,
2013-09-10 20:02:00,71.0,43.0,-100.00,WNW,302,10.0,11.0,36,0.00,,,0.00,171.000000,,2013-09-11 03:02:00,
2013-09-10 20:12:00,71.0,43.0,-100.00,WNW,302,10.0,11.0,36,0.00,,,0.00,171.000000,,2013-09-11 03:12:00,
2013-09-10 20:54:00,65.0,36.0,-100.00,WNW,290,15.0,15.0,34,-99.99,,,0.00,30.000000,,2013-09-11 03:54:00,
2013-09-10 21:04:00,65.0,36.0,-100.00,WNW,290,15.0,15.0,34,-99.99,,,0.00,30.000000,,2013-09-11 04:04:00,
2013-09-10 21:14:00,65.0,36.0,-100.00,WNW,290,15.0,15.0,34,-99.99,,,0.00,30.000000,,2013-09-11 04:14:00,
2013-09-10 21:24:00,65.0,36.0,-100.00,WNW,290,15.0,15.0,34,-99.99,,,0.00,30.000000,,2013-09-11 04:24:00,
2013-09-10 21:54:00,65.0,37.0,-100.00,NW,314,14.0,20.0,36,0.00,,,0.00,0.000000,,2013-09-11 04:54:00,
2013-09-10 22:03:00,65.0,37.0,-100.00,NW,314,14.0,20.0,36,0.00,,,0.00,0.000000,,2013-09-11 05:03:00,
2013-09-10 22:12:00,65.0,37.0,-100.00,NW,314,14.0,20.0,36,0.00,,,0.00,0.000000,,2013-09-11 05:12:00,
2013-09-10 22:53:00,63.0,37.0,-100.00,NW,316,16.0,23.0,38,0.00,,,0.00,0.000000,,2013-09-11 05:53:00,
2013-09-10 23:02:00,63.0,37.0,-100.00,NW,316,16.0,23.0,38,0.00,,,0.00,0.000000,,2013-09-11 06:02:00,
2013-09-10 23:12:00,63.0,37.0,-100.00,NW,316,16.0,23.0,38,0.00,,,0.00,0.000000,,2013-09-11 06:12:00,
2013-09-10 23:21:00,63.0,37.0,-100.00,NW,316,16.0,23.0,38,0.00,,,0.00,0.000000,,2013-09-11 06:21:00,
2013-09-10 23:52:00,64.0,39.0,-100.00,WNW,289,16.0,23.0,40,0.00,,,0.00,0.000000,,2013-09-11 06:52:00,